Time;durP1;ratioP1;P1;durP2;ratioP2;P2;SDS_P1;SDS_P2;PMS_P1;PMS_P2;Temp;Humidity;BMP_temperature;BMP_pressure;BME280_temperature;BME280_humidity;BME280_pressure;Samples;Min_cycle;Max_cycle;Signal;HPM_P1;HPM_P2
2023/08/10 07:01:24;;;;;;;0.10;0.10;;;23.90;99.90;29.30;102076.00;;;;6286960;22;1419515;-64
2023/08/10 07:03:53;;;;;;;0.10;0.10;;;24.60;99.90;30.00;102071.00;;;;6339479;22;20610;-65
2023/08/10 07:06:22;;;;;;;0.10;0.10;;;25.20;99.90;30.80;102063.00;;;;6318355;22;20151;-65
2023/08/10 07:08:52;;;;;;;0.20;0.20;;;26.60;99.90;30.70;102058.00;;;;6344496;22;20139;-65
2023/08/10 07:11:24;;;;;;;0.10;0.10;;;26.60;99.90;29.30;102070.00;;;;6319317;22;20155;-65
2023/08/10 07:13:52;;;;;;;0.10;0.10;;;26.40;99.90;30.40;102045.00;;;;6344454;22;20143;-65
2023/08/10 07:16:24;;;;;;;2.15;2.05;;;26.60;99.90;29.10;102035.00;;;;6344614;22;20551;-64
2023/08/10 07:18:55;;;;;;;0.10;0.10;;;26.40;99.90;29.50;102056.00;;;;6344121;22;20141;-64
2023/08/10 07:21:29;;;;;;;0.10;0.10;;;26.00;99.90;32.30;102044.00;;;;6319314;22;20158;-65
2023/08/10 07:23:58;;;;;;;0.43;0.43;;;27.30;99.90;31.50;102026.00;;;;6343926;22;20166;-65
2023/08/10 07:26:33;;;;;;;0.20;0.20;;;27.50;99.90;31.80;102045.00;;;;6318158;22;20155;-65
2023/08/10 07:29:13;;;;;;;0.10;0.10;;;27.50;99.90;33.30;102052.00;;;;6344484;22;20217;-65
2023/08/10 07:31:47;;;;;;;0.10;0.10;;;28.70;99.90;31.80;102056.00;;;;6319493;22;20167;-65
2023/08/10 07:34:13;;;;;;;0.10;0.10;;;28.50;99.90;30.50;102071.00;;;;6344131;22;20213;-64
2023/08/10 07:36:44;;;;;;;0.10;0.10;;;27.50;99.90;30.40;102074.00;;;;6343979;22;20196;-64
2023/08/10 07:39:19;;;;;;;0.10;0.10;;;26.80;99.90;29.70;102069.00;;;;6344019;22;20208;-65
2023/08/10 07:41:45;;;;;;;0.17;0.17;;;26.60;99.90;29.50;102077.00;;;;6318719;22;20158;-65
2023/08/10 07:44:21;;;;;;;0.20;0.20;;;26.00;99.90;28.80;102078.00;;;;6344171;22;20471;-64
2023/08/10 07:46:48;;;;;;;0.10;0.10;;;25.80;99.90;28.60;102082.00;;;;6319159;22;20161;-65
2023/08/10 07:49:22;;;;;;;0.63;0.20;;;25.70;99.90;30.10;102050.00;;;;6317908;22;20165;-64
2023/08/10 07:51:51;;;;;;;0.10;0.10;;;25.80;99.90;31.50;102066.00;;;;6343526;22;20163;-65
2023/08/10 07:54:23;;;;;;;0.10;0.10;;;27.00;99.90;30.60;102078.00;;;;6318686;22;20472;-64
2023/08/10 07:56:52;;;;;;;0.13;0.13;;;27.00;99.90;30.90;102065.00;;;;6317520;22;20151;-64
2023/08/10 07:59:27;;;;;;;0.10;0.10;;;26.90;99.90;32.60;102060.00;;;;6344935;22;20154;-65
2023/08/10 08:01:53;;;;;;;0.10;0.10;;;27.60;99.90;31.50;102037.00;;;;6317225;22;20198;-65
2023/08/10 08:04:30;;;;;;;0.20;0.20;;;27.90;99.90;31.00;102063.00;;;;6317602;22;20155;-64
2023/08/10 08:06:56;;;;;;;0.20;0.20;;;27.60;99.90;33.60;102022.00;;;;6344213;22;20139;-65
2023/08/10 08:09:25;;;;;;;0.30;0.30;;;28.80;99.90;30.10;102063.00;;;;6318042;22;20155;-64
2023/08/10 08:11:54;;;;;;;0.38;0.38;;;27.80;99.90;29.10;102055.00;;;;6343840;22;20447;-64
2023/08/10 08:14:28;;;;;;;0.20;0.20;;;26.60;99.90;29.90;102052.00;;;;6317785;22;20234;-64
2023/08/10 08:16:56;;;;;;;0.10;0.10;;;26.40;99.90;31.10;102045.00;;;;6343356;22;20566;-64
2023/08/10 08:19:27;;;;;;;0.95;0.95;;;27.30;99.90;31.00;102046.00;;;;6344195;22;20204;-64
2023/08/10 08:21:56;;;;;;;0.10;0.10;;;27.30;99.90;29.90;102055.00;;;;6343122;22;20242;-64
2023/08/10 08:24:29;;;;;;;0.10;0.10;;;27.20;99.90;30.00;102049.00;;;;6344124;22;20188;-64
2023/08/10 08:27:03;;;;;;;0.10;0.10;;;26.50;99.90;30.70;102044.00;;;;6371127;22;20189;-64
2023/08/10 08:29:36;;;;;;;5.38;0.85;;;26.70;99.90;28.50;102058.00;;;;6317989;22;20536;-64
2023/08/10 08:32:22;;;;;;;0.40;0.25;;;25.80;99.90;29.70;102046.00;;;;6317381;22;20154;-64
2023/08/10 08:34:48;;;;;;;0.10;0.10;;;26.20;99.90;29.40;102051.00;;;;6317556;22;20151;-64
2023/08/10 08:37:19;;;;;;;0.20;0.20;;;26.00;99.90;29.60;102050.00;;;;6343441;22;20147;-64
2023/08/10 08:39:52;;;;;;;0.10;0.10;;;26.10;99.90;32.30;102020.00;;;;6317586;22;20147;-64
2023/08/10 08:42:24;;;;;;;0.10;0.10;;;27.40;99.90;31.30;102054.00;;;;6317664;22;20174;-65
2023/08/10 08:44:59;;;;;;;0.10;0.10;;;27.90;99.90;33.10;102035.00;;;;6343387;22;20174;-65
2023/08/10 08:47:33;;;;;;;0.30;0.30;;;28.70;99.90;30.30;102029.00;;;;6317324;22;20228;-64
2023/08/10 08:50:02;;;;;;;0.10;0.10;;;27.90;99.90;31.60;102052.00;;;;6317316;22;20490;-64
2023/08/10 08:52:36;;;;;;;0.08;0.08;;;27.60;99.90;31.90;102044.00;;;;6317391;22;20155;-64
2023/08/10 08:55:07;;;;;;;0.52;0.30;;;28.00;99.90;31.60;102054.00;;;;6343713;22;20140;-64
2023/08/10 08:57:41;;;;;;;0.55;0.55;;;27.70;99.90;31.60;102054.00;;;;6343506;22;20147;-64
2023/08/10 09:00:11;;;;;;;0.10;0.10;;;27.90;99.90;30.50;102053.00;;;;6317465;22;20166;-64
2023/08/10 09:02:37;;;;;;;0.73;0.65;;;27.60;99.90;30.10;102053.00;;;;6317749;22;20615;-64
2023/08/10 09:05:07;;;;;;;0.30;0.30;;;27.40;99.90;30.10;102052.00;;;;6317065;22;20151;-64
2023/08/10 09:07:38;;;;;;;0.10;0.10;;;27.10;99.90;31.30;102049.00;;;;6317248;22;20151;-64
2023/08/10 09:10:05;;;;;;;0.10;0.10;;;27.20;99.90;32.10;102050.00;;;;6317908;22;20605;-64
2023/08/10 09:12:41;;;;;;;0.10;0.10;;;27.70;99.90;32.80;102033.00;;;;6317203;22;20247;-65
2023/08/10 09:15:18;;;;;;;0.82;0.82;;;28.40;99.90;31.10;102047.00;;;;6343659;22;20135;-65
2023/08/10 09:17:53;;;;;;;0.10;0.10;;;28.00;99.90;31.10;102048.00;;;;6343038;22;20173;-64
2023/08/10 09:20:23;;;;;;;0.20;0.20;;;27.40;99.90;29.60;102051.00;;;;6342630;22;20139;-64
2023/08/10 09:23:19;;;;;;;0.10;0.10;;;27.00;99.90;30.40;102038.00;;;;6317034;22;20178;-64
2023/08/10 09:25:46;;;;;;;0.22;0.22;;;26.90;99.90;30.80;102040.00;;;;6340996;22;20155;-64
2023/08/10 09:28:23;;;;;;;0.20;0.20;;;27.30;99.90;30.00;102018.00;;;;6342840;22;20564;-65
2023/08/10 09:30:49;;;;;;;0.13;0.13;;;26.90;99.90;31.30;102036.00;;;;6342910;22;20161;-64
2023/08/10 09:33:31;;;;;;;0.10;0.10;;;27.20;99.90;30.60;102036.00;;;;6343235;22;20226;-65
2023/08/10 09:36:09;;;;;;;0.10;0.10;;;27.20;99.90;29.60;102047.00;;;;6317422;22;20242;-64
2023/08/10 09:38:56;;;;;;;0.10;0.10;;;27.00;99.90;29.80;102047.00;;;;6316768;22;20151;-64
2023/08/10 09:41:30;;;;;;;0.22;0.22;;;26.60;99.90;30.40;102020.00;;;;6342982;22;20583;-64
2023/08/10 09:44:00;;;;;;;0.10;0.10;;;26.80;99.90;30.10;102041.00;;;;6316885;22;20192;-65
2023/08/10 09:46:37;;;;;;;0.10;0.10;;;26.70;99.90;30.30;102040.00;;;;6316735;22;20216;-64
2023/08/10 09:49:06;;;;;;;0.20;0.20;;;27.00;99.90;31.00;102035.00;;;;6316443;22;20158;-64
2023/08/10 09:51:57;;;;;;;0.10;0.10;;;27.10;99.90;31.00;102033.00;;;;6317236;22;20272;-65
2023/08/10 09:54:29;;;;;;;0.68;0.65;;;27.30;99.90;30.40;102029.00;;;;6316911;22;20264;-64
2023/08/10 09:57:00;;;;;;;0.15;0.15;;;27.40;99.90;31.60;101999.00;;;;6343821;22;20216;-64
2023/08/10 09:59:27;;;;;;;6.97;0.57;;;27.40;99.90;30.90;102027.00;;;;6316939;22;20238;-64
2023/08/10 10:01:56;;;;;;;0.32;0.32;;;27.50;99.90;32.00;102007.00;;;;6332263;22;20286;-65
2023/08/10 10:04:33;;;;;;;0.15;0.15;;;27.70;99.90;31.70;102011.00;;;;6311782;22;20161;-65
2023/08/10 10:07:00;;;;;;;0.38;0.32;;;27.80;99.90;31.40;102011.00;;;;6311208;22;20163;-65
2023/08/10 10:09:30;;;;;;;0.38;0.30;;;28.10;99.90;30.60;102024.00;;;;6311293;22;20139;-64
2023/08/10 10:12:01;;;;;;;0.15;0.15;;;27.40;99.90;32.50;102029.00;;;;6311180;22;20498;-66
2023/08/10 10:14:32;;;;;;;0.10;0.10;;;28.10;99.90;32.20;102023.00;;;;6311375;22;20151;-65
2023/08/10 10:17:20;;;;;;;0.45;0.45;;;28.10;99.90;32.50;102004.00;;;;6285597;22;20163;-65
2023/08/10 10:19:50;;;;;;;0.10;0.10;;;28.40;99.90;32.30;102019.00;;;;6311435;22;20238;-64
2023/08/10 10:33:28;;;;;;;0.10;0.10;;;27.00;99.90;31.30;102048.00;;;;5110880;27;20531;-63
2023/08/10 10:36:18;;;;;;;0.20;0.20;;;27.40;99.90;30.00;102046.00;;;;5089257;28;20185;-63
2023/08/10 10:38:54;;;;;;;0.40;0.40;;;27.20;99.90;31.20;102047.00;;;;5076103;28;20181;-66
2023/08/10 10:41:32;;;;;;;0.70;0.20;;;27.70;99.90;31.30;102033.00;;;;5089616;28;20188;-64
2023/08/10 10:44:38;;;;;;;0.35;0.30;;;27.90;99.90;33.00;102048.00;;;;5079085;28;20198;-64
2023/08/10 10:47:17;;;;;;;0.10;0.10;;;28.60;99.90;32.50;102050.00;;;;5084501;28;20200;-64
2023/08/10 10:49:56;;;;;;;0.10;0.10;;;28.70;99.90;32.20;102051.00;;;;5089516;28;20176;-64
2023/08/10 10:52:39;;;;;;;0.10;0.10;;;28.70;99.90;33.30;102044.00;;;;5089256;28;20571;-64
2023/08/10 10:55:15;;;;;;;0.25;0.25;;;29.30;99.90;32.50;102041.00;;;;5080392;28;20185;-64
2023/08/10 10:58:25;;;;;;;0.80;0.32;;;29.00;99.90;31.90;102052.00;;;;5089367;28;20630;-64
2023/08/10 11:00:54;;;;;;;0.10;0.10;;;28.90;99.90;33.50;102038.00;;;;5082098;28;20688;-64
2023/08/10 11:03:29;;;;;;;0.30;0.30;;;29.50;99.90;33.00;102042.00;;;;5081319;28;20193;-65
2023/08/10 11:06:13;;;;;;;0.10;0.10;;;29.30;99.90;31.00;102058.00;;;;5088700;28;20184;-64
2023/08/10 11:08:41;;;;;;;0.10;0.10;;;28.40;99.90;29.80;102056.00;;;;5088765;28;20184;-64
2023/08/10 11:11:15;;;;;;;0.10;0.10;;;27.80;99.90;31.30;102045.00;;;;5082395;28;20188;-64
2023/08/10 11:13:44;;;;;;;0.10;0.10;;;27.80;99.90;33.00;102023.00;;;;5088274;28;20650;-64
2023/08/10 11:16:13;;;;;;;0.10;0.10;;;28.70;99.90;34.70;102008.00;;;;5088317;28;20322;-65
2023/08/10 11:18:48;;;;;;;0.10;0.10;;;29.90;99.90;33.60;102035.00;;;;5088567;28;20181;-65
2023/08/10 11:21:23;;;;;;;0.10;0.10;;;30.30;99.90;31.60;102044.00;;;;5088663;28;20188;-65
2023/08/10 11:23:57;;;;;;;0.13;0.13;;;29.10;99.90;32.20;102040.00;;;;5088208;28;20187;-65
2023/08/10 11:26:29;;;;;;;0.10;0.10;;;29.00;99.90;32.60;102033.00;;;;5072148;28;20696;-65
2023/08/10 11:29:04;;;;;;;0.20;0.20;;;28.90;99.90;32.10;102032.00;;;;5088279;28;20181;-64
2023/08/10 11:31:39;;;;;;;0.35;0.35;;;28.60;99.90;31.30;102042.00;;;;5088444;28;20224;-64
2023/08/10 11:34:29;;;;;;;0.40;0.40;;;28.40;99.90;30.90;102041.00;;;;5088332;28;20184;-64
2023/08/10 11:37:04;;;;;;;0.10;0.10;;;28.10;99.90;31.00;102025.00;;;;5088125;28;20188;-64
2023/08/10 11:39:30;;;;;;;0.10;0.10;;;28.10;99.90;32.10;102013.00;;;;5088080;28;20180;-64
2023/08/10 11:41:56;;;;;;;0.25;0.25;;;28.30;99.90;33.10;102010.00;;;;5088519;28;20185;-64
2023/08/10 11:44:26;;;;;;;0.20;0.20;;;29.00;99.90;34.60;101999.00;;;;5064265;28;20244;-65
2023/08/10 11:46:56;;;;;;;0.10;0.10;;;30.10;99.90;34.80;102002.00;;;;5074500;28;20220;-64
2023/08/10 11:49:29;;;;;;;1.27;0.30;;;30.40;99.90;33.20;102011.00;;;;5074578;28;20239;-64
2023/08/10 11:52:07;;;;;;;0.10;0.10;;;30.40;99.90;32.70;102002.00;;;;5075514;28;20545;-64
2023/08/10 11:54:53;;;;;;;0.22;0.22;;;29.80;99.90;32.10;102011.00;;;;5058393;28;20197;-64
2023/08/10 11:57:46;;;;;;;0.22;0.22;;;29.10;99.90;32.20;102014.00;;;;5074433;28;20537;-64
2023/08/10 12:00:25;;;;;;;0.25;0.25;;;28.70;99.90;32.20;102015.00;;;;5074068;28;20166;-64
2023/08/10 12:03:11;;;;;;;0.10;0.10;;;28.30;99.90;30.80;102014.00;;;;5070191;28;20181;-64
2023/08/10 12:05:46;;;;;;;0.10;0.10;;;27.50;99.90;31.50;102011.00;;;;5077711;28;20774;-64
2023/08/10 12:08:15;;;;;;;0.10;0.10;;;27.60;99.90;30.90;102017.00;;;;5070202;28;20177;-64
2023/08/10 12:10:51;;;;;;;0.20;0.20;;;27.30;99.90;31.30;102024.00;;;;5074024;28;20226;-66
2023/08/10 12:13:20;;;;;;;0.20;0.20;;;27.30;99.90;31.30;102005.00;;;;5073867;28;20201;-66
2023/08/10 12:16:09;;;;;;;0.10;0.10;;;27.60;99.90;31.40;102033.00;;;;5057107;28;20268;-66
2023/08/10 12:18:37;;;;;;;0.25;0.25;;;27.40;99.90;31.30;102030.00;;;;5060400;28;20663;-64
2023/08/10 12:21:05;;;;;;;0.43;0.43;;;27.40;99.90;31.20;102034.00;;;;5084644;28;20635;-64
2023/08/10 12:23:34;;;;;;;0.10;0.10;;;27.50;99.90;31.10;102040.00;;;;5057765;28;20181;-64
2023/08/10 12:26:02;;;;;;;0.65;0.22;;;27.40;99.90;30.50;102033.00;;;;5063073;28;20624;-66
2023/08/10 12:28:29;;;;;;;0.10;0.10;;;27.10;99.90;29.30;102032.00;;;;5057211;28;20182;-66
2023/08/10 12:30:58;;;;;;;0.90;0.38;;;26.50;99.90;29.60;102041.00;;;;5074041;28;20182;-66
2023/08/10 12:33:34;;;;;;;0.15;0.15;;;26.30;99.90;30.00;102054.00;;;;5073818;28;20602;-66
2023/08/10 12:36:13;;;;;;;0.20;0.20;;;26.40;99.90;30.50;102060.00;;;;5073326;28;20222;-66
2023/08/10 12:38:45;;;;;;;0.20;0.20;;;26.80;99.90;29.80;102032.00;;;;5073591;28;20178;-66
2023/08/10 12:41:14;;;;;;;0.10;0.10;;;26.60;99.90;30.80;102048.00;;;;5073950;28;20709;-66
2023/08/10 12:43:46;;;;;;;0.10;0.10;;;26.70;99.90;30.80;102047.00;;;;5073897;28;20202;-64
2023/08/10 12:46:13;;;;;;;0.17;0.17;;;26.90;99.90;30.90;102044.00;;;;5073307;28;20200;-65
2023/08/10 12:48:39;;;;;;;7.25;6.43;;;27.10;99.90;30.40;102051.00;;;;5073518;28;20264;-64
2023/08/10 12:51:11;;;;;;;0.10;0.10;;;27.00;99.90;29.90;102029.00;;;;5073545;28;20220;-65
2023/08/10 12:53:37;;;;;;;0.10;0.10;;;26.80;99.90;30.60;102046.00;;;;5073860;28;20190;-64
2023/08/10 12:56:03;;;;;;;0.10;0.10;;;26.90;99.90;30.70;102040.00;;;;5072216;28;20178;-65
2023/08/10 12:58:29;;;;;;;0.25;0.25;;;26.90;99.90;31.40;102028.00;;;;5073154;28;20200;-65
2023/08/10 13:00:58;;;;;;;0.30;0.30;;;27.10;99.90;30.30;102025.00;;;;5064292;28;20548;-65
2023/08/10 13:03:24;;;;;;;0.30;0.30;;;27.00;99.90;30.30;102028.00;;;;5073543;28;20190;-64
2023/08/10 13:05:53;;;;;;;0.10;0.10;;;26.80;99.90;30.90;102028.00;;;;5073165;28;20579;-64
2023/08/10 13:08:22;;;;;;;0.10;0.10;;;26.90;99.90;30.40;102022.00;;;;5073095;28;20189;-64
2023/08/10 13:11:14;;;;;;;0.32;0.32;;;26.70;99.90;29.50;102038.00;;;;5073066;28;20185;-64
2023/08/10 13:13:46;;;;;;;0.20;0.20;;;26.40;99.90;30.10;102031.00;;;;5056286;28;20178;-65
2023/08/10 13:16:15;;;;;;;0.10;0.10;;;26.40;99.90;30.30;102042.00;;;;5073201;28;20184;-65
2023/08/10 13:18:46;;;;;;;0.10;0.10;;;26.50;99.90;30.40;102024.00;;;;5072733;28;20200;-65
2023/08/10 13:21:35;;;;;;;0.20;0.20;;;26.70;99.90;29.40;102047.00;;;;5059540;28;20658;-65
2023/08/10 13:24:03;;;;;;;0.20;0.20;;;26.70;99.90;30.20;102017.00;;;;5072321;28;20234;-65
2023/08/10 13:26:32;;;;;;;0.10;0.10;;;26.40;99.90;30.30;102031.00;;;;5072320;28;20189;-65
2023/08/10 13:29:01;;;;;;;0.10;0.10;;;26.50;99.90;31.30;102005.00;;;;5072235;28;20239;-65
2023/08/10 13:31:26;;;;;;;0.10;0.10;;;26.90;99.90;31.80;102012.00;;;;5072266;28;20208;-65
2023/08/10 13:33:52;;;;;;;0.15;0.15;;;27.30;99.90;30.80;101987.00;;;;5072221;28;20597;-65
2023/08/10 13:36:20;;;;;;;0.10;0.10;;;27.10;99.90;30.80;102002.00;;;;5072585;28;20185;-66
2023/08/10 13:39:04;;;;;;;0.10;0.10;;;26.80;99.90;31.90;101974.00;;;;5072590;28;20177;-65
2023/08/10 13:41:52;;;;;;;0.10;0.10;;;27.30;99.90;30.70;102006.00;;;;5072413;28;20197;-65
2023/08/10 13:44:21;;;;;;;0.28;0.28;;;27.60;99.90;30.90;101999.00;;;;5063171;28;20200;-65
2023/08/10 13:46:52;;;;;;;0.10;0.10;;;27.30;99.90;30.80;102011.00;;;;5070582;28;20190;-65
2023/08/10 13:49:28;;;;;;;0.20;0.20;;;27.10;99.90;30.30;102001.00;;;;5072294;28;20196;-65
2023/08/10 13:52:00;;;;;;;0.10;0.10;;;26.90;99.90;31.00;101996.00;;;;5055864;28;20211;-65
2023/08/10 13:54:26;;;;;;;0.10;0.10;;;27.00;99.90;29.70;101989.00;;;;5072900;28;20178;-65
2023/08/10 13:57:07;;;;;;;0.20;0.20;;;26.70;99.90;29.40;102015.00;;;;5072256;28;20192;-65
2023/08/10 13:59:35;;;;;;;0.57;0.50;;;26.50;99.90;29.20;102014.00;;;;5072129;28;20663;-65
2023/08/10 14:02:05;;;;;;;0.68;0.47;;;26.20;99.90;30.30;101989.00;;;;5072517;28;20275;-65
2023/08/10 14:04:34;;;;;;;0.10;0.10;;;26.40;99.90;29.80;101997.00;;;;5072199;28;20189;-65
2023/08/10 14:07:18;;;;;;;0.10;0.10;;;26.40;99.90;30.30;101980.00;;;;5072517;28;20209;-65
2023/08/10 14:09:46;;;;;;;0.20;0.20;;;26.60;99.90;30.70;101974.00;;;;5071836;28;20178;-65
2023/08/10 14:12:20;;;;;;;0.10;0.10;;;26.60;99.90;30.60;101980.00;;;;5072208;28;20671;-65
2023/08/10 14:15:06;;;;;;;0.13;0.13;;;26.80;99.90;29.30;101973.00;;;;5054923;28;20185;-65
2023/08/10 14:17:38;;;;;;;0.38;0.38;;;26.80;99.90;30.00;101985.00;;;;5055054;28;20185;-65
2023/08/10 14:20:14;;;;;;;0.10;0.10;;;26.40;99.90;30.30;101979.00;;;;5071796;28;20794;-65
2023/08/10 14:22:45;;;;;;;0.38;0.30;;;26.60;99.90;29.50;101972.00;;;;5071668;28;20200;-65
2023/08/10 14:25:14;;;;;;;0.50;0.50;;;26.50;99.90;29.40;101947.00;;;;5071873;28;20666;-65
2023/08/10 14:27:43;;;;;;;0.47;0.47;;;26.20;99.90;29.10;101969.00;;;;5071944;28;20515;-65
2023/08/10 14:30:20;;;;;;;0.47;0.47;;;25.80;99.90;29.90;101958.00;;;;5055659;28;20180;-65
2023/08/10 14:33:26;;;;;;;0.10;0.10;;;26.00;99.90;29.70;101970.00;;;;5069438;28;20215;-65
2023/08/10 14:35:59;;;;;;;0.43;0.43;;;26.20;99.90;29.00;101968.00;;;;5055273;28;20549;-65
2023/08/10 14:38:42;;;;;;;0.20;0.20;;;26.20;99.90;29.50;101958.00;;;;5055455;28;20226;-65
2023/08/10 14:41:32;;;;;;;0.43;0.30;;;26.30;99.90;30.20;101950.00;;;;5071817;28;20177;-65
2023/08/10 14:43:58;;;;;;;0.10;0.10;;;26.20;99.90;30.30;101923.00;;;;5056482;28;20208;-65
2023/08/10 14:46:28;;;;;;;0.10;0.10;;;26.40;99.90;30.30;101953.00;;;;5071562;28;20644;-65
2023/08/10 14:48:54;;;;;;;0.90;0.50;;;26.60;99.90;29.10;101962.00;;;;5071630;28;20671;-65
2023/08/10 14:51:25;;;;;;;0.10;0.10;;;26.20;99.90;29.70;101975.00;;;;5071545;28;20182;-65
2023/08/10 14:53:51;;;;;;;0.50;0.50;;;26.20;99.90;29.00;101968.00;;;;5072736;28;20181;-65
2023/08/10 14:56:20;;;;;;;0.10;0.10;;;26.10;99.90;30.40;101959.00;;;;5071896;28;20192;-66
2023/08/10 14:58:48;;;;;;;0.50;0.20;;;26.20;99.90;29.60;101958.00;;;;5071384;28;20182;-65
2023/08/10 15:01:24;;;;;;;0.30;0.30;;;26.30;99.90;30.10;101958.00;;;;5071485;28;20182;-65
2023/08/10 15:03:53;;;;;;;0.35;0.35;;;26.30;99.90;29.40;101961.00;;;;5054773;28;20262;-65
2023/08/10 15:06:19;;;;;;;0.35;0.35;;;26.20;99.90;29.50;101967.00;;;;5071096;28;20193;-65
2023/08/10 15:08:49;;;;;;;0.17;0.17;;;26.10;99.90;29.30;101963.00;;;;5071374;28;20173;-65
2023/08/10 15:11:20;;;;;;;0.75;0.55;;;25.90;99.90;30.10;101948.00;;;;5071050;28;20189;-65
2023/08/10 15:13:51;;;;;;;0.35;0.35;;;26.10;99.90;29.90;101946.00;;;;5071156;28;20185;-65
2023/08/10 15:16:40;;;;;;;0.20;0.20;;;26.20;99.90;29.80;101951.00;;;;5070942;28;20227;-65
2023/08/10 15:19:09;;;;;;;0.38;0.38;;;26.20;99.90;29.40;101959.00;;;;5058331;28;20182;-65
2023/08/10 15:21:37;;;;;;;1.10;0.55;;;26.10;99.90;29.30;101945.00;;;;5074856;28;20181;-65
2023/08/10 15:24:06;;;;;;;0.17;0.17;;;26.00;99.90;29.60;101962.00;;;;5074999;28;20193;-65
2023/08/10 15:26:37;;;;;;;0.10;0.10;;;26.10;99.90;29.80;101958.00;;;;5075238;28;20184;-65
2023/08/10 15:29:09;;;;;;;0.20;0.20;;;26.00;99.90;29.50;101967.00;;;;5075826;28;20192;-66
2023/08/10 15:31:35;;;;;;;0.30;0.30;;;25.90;99.90;28.50;101971.00;;;;5057775;28;20217;-65
2023/08/10 15:34:07;;;;;;;0.38;0.38;;;25.70;99.90;28.50;101966.00;;;;5074508;28;20706;-65
2023/08/10 15:36:34;;;;;;;0.40;0.40;;;25.60;99.90;28.60;101963.00;;;;5074675;28;20668;-65
2023/08/10 15:39:03;;;;;;;0.20;0.20;;;25.40;99.90;29.80;101928.00;;;;5075293;28;20181;-65
2023/08/10 15:41:32;;;;;;;0.80;0.55;;;25.80;99.90;29.50;101952.00;;;;5074944;28;20207;-66
2023/08/10 15:44:06;;;;;;;0.10;0.10;;;26.00;99.90;29.90;101945.00;;;;5073805;28;20197;-66
2023/08/10 15:46:38;;;;;;;0.10;0.10;;;26.00;99.90;29.40;101949.00;;;;5074442;28;20982;-66
2023/08/10 15:49:04;;;;;;;0.55;0.55;;;26.00;99.90;29.80;101919.00;;;;5074428;28;20178;-65
2023/08/10 15:51:38;;;;;;;0.30;0.30;;;26.10;99.90;29.60;101944.00;;;;5062638;28;20208;-66
2023/08/10 15:54:07;;;;;;;0.30;0.30;;;26.20;99.90;29.90;101912.00;;;;5069834;28;20185;-66
2023/08/10 15:56:38;;;;;;;0.30;0.30;;;26.10;99.90;30.00;101940.00;;;;5074125;28;20720;-65
2023/08/10 15:59:13;;;;;;;4.07;0.40;;;26.20;99.90;30.00;101935.00;;;;5074482;28;20272;-65
2023/08/10 16:01:41;;;;;;;0.80;0.35;;;26.30;99.90;30.30;101905.00;;;;5074222;28;20189;-65
2023/08/10 16:04:09;;;;;;;0.20;0.20;;;26.50;99.90;28.00;101932.00;;;;5074259;28;20204;-65
2023/08/10 16:06:41;;;;;;;0.20;0.20;;;26.00;99.90;28.70;101955.00;;;;5073972;28;20182;-65
2023/08/10 16:09:07;;;;;;;0.20;0.20;;;25.80;99.90;29.40;101946.00;;;;5074235;28;20185;-65
2023/08/10 16:11:34;;;;;;;0.17;0.17;;;25.80;99.90;29.30;101945.00;;;;5073272;28;20202;-65
2023/08/10 16:14:08;;;;;;;0.10;0.10;;;25.90;99.90;29.30;101949.00;;;;5063829;28;20186;-65
2023/08/10 16:16:34;;;;;;;0.40;0.40;;;25.80;99.90;29.10;101949.00;;;;5058053;28;20296;-65
2023/08/10 16:19:00;;;;;;;0.10;0.10;;;25.90;99.90;29.70;101938.00;;;;5074085;28;20290;-65
2023/08/10 16:21:26;;;;;;;0.17;0.17;;;26.00;99.90;30.30;101944.00;;;;5073701;28;20520;-65
2023/08/10 16:23:52;;;;;;;0.10;0.10;;;26.10;99.90;29.80;101933.00;;;;5070230;28;20230;-65
2023/08/10 16:26:20;;;;;;;0.10;0.10;;;26.10;99.90;30.20;101953.00;;;;5086082;28;20189;-65
2023/08/10 16:28:57;;;;;;;0.10;0.10;;;26.20;99.90;29.80;101935.00;;;;5057269;28;20272;-65
2023/08/10 16:31:25;;;;;;;0.10;0.10;;;26.10;99.90;30.40;101946.00;;;;5057928;28;20222;-66
2023/08/10 16:33:51;;;;;;;0.65;0.65;;;26.20;99.90;29.00;101944.00;;;;5055705;28;20190;-65
2023/08/10 16:36:20;;;;;;;0.10;0.10;;;25.90;99.90;29.60;101959.00;;;;5073437;28;20263;-65
2023/08/10 16:38:48;;;;;;;0.10;0.10;;;25.90;99.90;29.70;101953.00;;;;5061963;28;20186;-65
2023/08/10 16:41:17;;;;;;;0.20;0.20;;;26.00;99.90;30.20;101957.00;;;;5073116;28;20213;-65
2023/08/10 16:43:43;;;;;;;0.10;0.10;;;26.10;99.90;30.00;101941.00;;;;5073649;28;20273;-65
2023/08/10 16:46:10;;;;;;;0.15;0.15;;;26.20;99.90;30.40;101944.00;;;;5073105;28;20196;-65
2023/08/10 16:48:38;;;;;;;0.20;0.20;;;26.30;99.90;29.40;101960.00;;;;5066142;28;20194;-65
2023/08/10 16:51:04;;;;;;;0.20;0.20;;;26.20;99.90;29.70;101956.00;;;;5056364;28;20709;-65
2023/08/10 16:53:33;;;;;;;0.20;0.20;;;26.10;99.90;29.60;101958.00;;;;5060030;28;20668;-66
2023/08/10 16:56:03;;;;;;;0.10;0.10;;;26.10;99.90;30.30;101944.00;;;;5073270;28;20185;-65
2023/08/10 16:58:47;;;;;;;0.40;0.40;;;26.20;99.90;30.20;101956.00;;;;5056488;28;20547;-65
2023/08/10 17:01:33;;;;;;;0.10;0.10;;;26.20;99.90;29.80;101957.00;;;;5056487;28;20185;-65
2023/08/10 17:04:00;;;;;;;0.10;0.10;;;26.00;99.90;30.30;101961.00;;;;5065715;28;20181;-65
2023/08/10 17:06:29;;;;;;;0.10;0.10;;;26.20;99.90;29.90;101963.00;;;;5089875;28;20181;-66
2023/08/10 17:08:55;;;;;;;0.20;0.20;;;26.20;99.90;30.20;101941.00;;;;5056432;28;20190;-65
2023/08/10 17:11:24;;;;;;;0.10;0.10;;;26.20;99.90;30.20;101960.00;;;;5072969;28;20184;-65
2023/08/10 17:13:51;;;;;;;0.20;0.20;;;26.20;99.90;29.50;101972.00;;;;5072568;28;20217;-65
2023/08/10 17:16:17;;;;;;;0.20;0.20;;;26.00;99.90;30.30;101964.00;;;;5072898;28;20192;-65
2023/08/10 17:18:46;;;;;;;0.10;0.10;;;26.10;99.90;30.70;101964.00;;;;5072383;28;20193;-65
2023/08/10 17:21:12;;;;;;;0.25;0.25;;;26.40;99.90;30.20;101959.00;;;;5073131;28;20189;-65
2023/08/10 17:23:45;;;;;;;0.10;0.10;;;26.30;99.90;29.70;101961.00;;;;5056047;28;20189;-65
2023/08/10 17:26:11;;;;;;;0.10;0.10;;;26.00;99.90;30.30;101967.00;;;;5071912;28;20204;-65
2023/08/10 17:28:43;;;;;;;0.35;0.35;;;26.10;99.90;29.80;101959.00;;;;5059185;28;20185;-65
2023/08/10 17:31:09;;;;;;;0.10;0.10;;;26.10;99.90;29.70;101957.00;;;;5049384;28;20658;-65
2023/08/10 17:33:41;;;;;;;0.10;0.10;;;25.90;99.90;30.00;101942.00;;;;5072036;28;20542;-65
2023/08/10 17:36:10;;;;;;;0.10;0.10;;;25.90;99.90;30.40;101957.00;;;;5078132;28;20181;-65
2023/08/10 17:38:44;;;;;;;0.15;0.15;;;26.10;99.90;29.20;101968.00;;;;5072756;28;20204;-65
2023/08/10 17:41:12;;;;;;;0.13;0.13;;;25.80;99.90;29.90;101974.00;;;;5088902;28;20178;-65
2023/08/10 17:43:41;;;;;;;0.40;0.40;;;25.80;99.90;29.10;101981.00;;;;5073254;28;20527;-65
2023/08/10 17:46:12;;;;;;;0.10;0.10;;;25.80;99.90;29.10;101950.00;;;;5056888;28;20204;-65
2023/08/10 17:48:41;;;;;;;0.20;0.20;;;25.60;99.90;29.70;101973.00;;;;5073091;28;20186;-65
2023/08/10 17:51:10;;;;;;;0.10;0.10;;;25.70;99.90;29.30;101984.00;;;;5072119;28;20345;-65
2023/08/10 17:53:38;;;;;;;2.28;0.57;;;25.70;99.90;29.90;101944.00;;;;5055569;28;20205;-65
2023/08/10 17:56:13;;;;;;;0.63;0.63;;;25.80;99.90;29.70;101955.00;;;;5056896;28;20804;-65
2023/08/10 17:58:39;;;;;;;0.47;0.47;;;25.80;99.90;29.30;101975.00;;;;5071945;28;20169;-65
2023/08/10 18:01:09;;;;;;;0.57;0.57;;;25.70;99.90;29.30;101973.00;;;;5073174;28;20226;-65
2023/08/10 18:03:43;;;;;;;0.10;0.10;;;25.70;99.90;29.00;101974.00;;;;5055826;28;20189;-64
2023/08/10 18:06:12;;;;;;;0.13;0.13;;;25.60;99.90;29.40;101968.00;;;;5071959;28;20173;-65
2023/08/10 18:08:38;;;;;;;0.20;0.20;;;25.40;99.90;29.90;101960.00;;;;5071812;28;20189;-65
2023/08/10 18:11:07;;;;;;;0.40;0.40;;;25.70;99.90;30.20;101960.00;;;;5072458;28;20178;-65
2023/08/10 18:13:36;;;;;;;0.10;0.10;;;25.90;99.90;30.40;101956.00;;;;5057893;28;20286;-65
2023/08/10 18:16:33;;;;;;;0.22;0.22;;;26.10;99.90;30.30;101953.00;;;;5071787;28;20177;-65
2023/08/10 18:19:03;;;;;;;0.20;0.20;;;26.10;99.90;29.50;101962.00;;;;5071937;28;20185;-65
2023/08/10 18:21:31;;;;;;;0.10;0.10;;;26.00;99.90;30.20;101955.00;;;;5056332;28;20177;-65